createdAt,value
2023-05-07T00:02:39.324Z,7.93
2023-05-07T00:05:44.940Z,8.90
2023-05-07T00:08:50.769Z,8.80
2023-05-07T00:11:56.729Z,8.70
2023-05-07T00:15:04.043Z,10.15
2023-05-07T00:18:09.633Z,9.98
2023-05-07T00:21:15.269Z,9.43
2023-05-07T00:24:21.297Z,9.85
2023-05-07T00:27:27.208Z,10.27
2023-05-07T00:30:33.354Z,10.23
2023-05-07T00:33:39.706Z,10.15
2023-05-07T00:36:44.891Z,10.27
2023-05-07T00:39:51.020Z,10.63
2023-05-07T00:42:59.525Z,10.95
2023-05-07T00:46:05.129Z,11.18
2023-05-07T00:49:11.141Z,11.18
2023-05-07T00:52:18.964Z,10.38
2023-05-07T00:55:25.235Z,10.38
2023-05-07T00:58:31.717Z,10.88
2023-05-07T01:01:38.177Z,11.07
2023-05-07T01:04:44.110Z,11.70
2023-05-07T01:07:51.461Z,12.48
2023-05-07T01:10:59.011Z,12.88
2023-05-07T01:14:05.741Z,12.57
2023-05-07T01:17:12.266Z,12.77
2023-05-07T01:20:19.218Z,13.35
2023-05-07T01:23:26.993Z,14.13
2023-05-07T01:26:32.620Z,14.50
2023-05-07T01:29:38.625Z,15.15
2023-05-07T01:32:54.881Z,14.98
2023-05-07T01:36:03.521Z,14.70
2023-05-07T01:39:10.996Z,15.38
2023-05-07T01:42:16.605Z,15.88
2023-05-07T01:45:23.097Z,15.10
2023-05-07T01:48:30.234Z,16.25
2023-05-07T01:51:36.731Z,16.05
2023-05-07T01:54:42.296Z,15.93
2023-05-07T01:57:47.506Z,16.52
2023-05-07T02:00:53.508Z,17.17
2023-05-07T02:03:59.060Z,15.95
2023-05-07T02:07:07.500Z,16.48
2023-05-07T02:10:13.098Z,16.92
2023-05-07T02:13:18.721Z,17.92
2023-05-07T02:16:25.210Z,16.45
2023-05-07T02:19:31.801Z,16.20
2023-05-07T02:22:37.973Z,16.67
2023-05-07T02:25:43.625Z,17.63
2023-05-07T02:28:49.247Z,15.95
2023-05-07T02:31:54.941Z,17.70
2023-05-07T02:35:00.912Z,17.48
2023-05-07T02:38:06.473Z,17.83
2023-05-07T02:41:12.986Z,17.50
2023-05-07T02:44:18.341Z,16.30
2023-05-07T02:47:30.988Z,17.88
2023-05-07T02:50:38.140Z,17.90
2023-05-07T02:53:43.618Z,19.33
2023-05-07T02:56:49.155Z,18.20
2023-05-07T02:59:54.532Z,18.52
2023-05-07T03:03:01.029Z,18.40
2023-05-07T03:06:08.022Z,17.40
2023-05-07T03:09:13.439Z,18.30
2023-05-07T03:12:18.991Z,17.20
2023-05-07T03:15:24.165Z,17.38
2023-05-07T03:18:29.684Z,18.42
2023-05-07T03:21:35.663Z,18.77
2023-05-07T03:24:41.148Z,18.42
2023-05-07T03:27:47.088Z,18.05
2023-05-07T03:30:52.409Z,18.92
2023-05-07T03:33:58.812Z,19.15
2023-05-07T03:37:05.172Z,20.05
2023-05-07T03:40:12.227Z,19.80
2023-05-07T03:43:24.636Z,19.02
2023-05-07T03:46:39.624Z,19.27
2023-05-07T03:49:46.436Z,17.75
2023-05-07T03:52:53.162Z,18.80
2023-05-07T03:56:00.702Z,18.98
2023-05-07T03:59:09.846Z,19.58
2023-05-07T04:02:15.242Z,19.52
2023-05-07T04:05:20.723Z,20.88
2023-05-07T04:08:29.711Z,20.20
2023-05-07T04:11:36.060Z,19.60
2023-05-07T04:14:41.310Z,20.42
2023-05-07T04:17:47.069Z,20.00
2023-05-07T04:20:54.354Z,19.77
2023-05-07T04:24:00.720Z,19.17
2023-05-07T04:27:07.835Z,19.45
2023-05-07T04:30:14.676Z,20.48
2023-05-07T04:33:21.082Z,19.65
2023-05-07T04:36:31.529Z,20.83
2023-05-07T04:39:41.864Z,21.10
2023-05-07T04:42:47.749Z,22.30
2023-05-07T04:45:53.762Z,21.50
2023-05-07T04:49:02.270Z,21.60
2023-05-07T04:52:08.035Z,21.58
2023-05-07T04:55:14.070Z,20.25
2023-05-07T04:58:20.588Z,21.90
2023-05-07T05:01:27.144Z,21.58
2023-05-07T05:04:33.208Z,19.75
2023-05-07T05:07:39.073Z,19.77
2023-05-07T05:10:44.835Z,20.45
2023-05-07T05:13:50.704Z,20.27
2023-05-07T05:16:59.696Z,20.67
2023-05-07T05:20:07.015Z,20.27
2023-05-07T05:23:13.807Z,21.00
2023-05-07T05:26:20.076Z,21.60
2023-05-07T05:29:25.616Z,23.05
2023-05-07T05:32:31.183Z,20.60
2023-05-07T05:35:37.083Z,20.77
2023-05-07T05:38:45.629Z,20.48
2023-05-07T05:41:52.866Z,20.58
2023-05-07T05:44:59.867Z,20.92
2023-05-07T05:48:07.552Z,19.55
2023-05-07T05:51:13.248Z,22.38
2023-05-07T05:54:19.142Z,22.25
2023-05-07T05:57:25.989Z,21.92
2023-05-07T06:00:33.735Z,22.00
2023-05-07T06:03:42.254Z,19.85
2023-05-07T06:06:52.840Z,20.83
2023-05-07T06:09:59.500Z,20.92
2023-05-07T06:13:05.004Z,22.08
2023-05-07T06:16:12.874Z,22.80
2023-05-07T06:19:24.304Z,22.95
2023-05-07T06:22:32.050Z,23.08
2023-05-07T06:25:38.798Z,21.23
2023-05-07T06:28:44.417Z,21.13
2023-05-07T06:31:54.570Z,21.70
2023-05-07T06:35:01.563Z,20.80
2023-05-07T06:38:07.183Z,21.92
2023-05-07T06:41:12.999Z,22.02
2023-05-07T06:44:19.013Z,21.10
2023-05-07T06:47:30.332Z,20.15
2023-05-07T06:50:36.250Z,19.73
2023-05-07T06:53:42.127Z,20.02
2023-05-07T06:56:50.175Z,18.40
2023-05-07T06:59:56.484Z,18.52
2023-05-07T07:03:02.379Z,17.23
2023-05-07T07:06:10.159Z,17.23
2023-05-07T07:09:16.607Z,16.80
2023-05-07T07:12:21.954Z,16.15
2023-05-07T07:15:28.081Z,17.30
2023-05-07T07:18:35.079Z,15.50
2023-05-07T07:21:40.566Z,14.75
2023-05-07T07:24:46.412Z,13.88
2023-05-07T07:27:55.474Z,9.27
2023-05-07T07:31:02.866Z,8.75
2023-05-07T07:34:09.895Z,7.90
2023-05-07T07:37:15.579Z,8.95
2023-05-07T07:40:21.651Z,9.13
2023-05-07T07:43:27.826Z,7.38
2023-05-07T07:46:34.617Z,6.88
2023-05-07T07:49:40.950Z,7.78
2023-05-07T07:52:50.343Z,7.43
2023-05-07T07:55:59.526Z,7.30
2023-05-07T07:59:08.490Z,7.43
2023-05-07T08:02:18.480Z,6.25
2023-05-07T08:05:24.680Z,6.30
2023-05-07T08:08:30.539Z,5.35
2023-05-07T08:11:36.541Z,5.07
2023-05-07T08:14:43.672Z,5.57
2023-05-07T08:17:49.732Z,6.88
2023-05-07T08:20:55.634Z,6.78
2023-05-07T08:24:04.258Z,6.50
2023-05-07T08:27:09.795Z,5.50
2023-05-07T08:30:15.653Z,6.00
2023-05-07T08:33:21.553Z,7.15
2023-05-07T08:36:27.153Z,7.43
2023-05-07T08:39:32.702Z,6.50
2023-05-07T08:42:39.162Z,5.68
2023-05-07T08:45:47.257Z,5.10
2023-05-07T08:48:54.597Z,5.13
2023-05-07T08:52:00.391Z,6.05
2023-05-07T08:55:08.565Z,6.10
2023-05-07T08:58:13.720Z,5.70
2023-05-07T09:01:20.738Z,5.38
2023-05-07T09:04:30.490Z,4.95
2023-05-07T09:07:35.755Z,5.32
2023-05-07T09:10:43.776Z,4.38
2023-05-07T09:13:49.566Z,4.88
2023-05-07T09:16:55.276Z,4.32
2023-05-07T09:20:10.121Z,6.03
2023-05-07T09:23:18.230Z,5.05
2023-05-07T09:26:24.497Z,4.80
2023-05-07T09:29:31.302Z,4.90
2023-05-07T09:32:39.518Z,5.90
2023-05-07T09:35:53.095Z,5.15
2023-05-07T09:39:03.047Z,4.25
2023-05-07T09:42:09.633Z,5.35
2023-05-07T09:45:15.898Z,5.10
2023-05-07T09:48:21.970Z,4.95
2023-05-07T09:51:44.824Z,4.82
2023-05-07T09:54:52.852Z,4.43
2023-05-07T10:01:09.910Z,4.68
2023-05-07T10:04:16.588Z,5.07
2023-05-07T10:07:24.408Z,4.90
2023-05-07T10:10:35.363Z,4.95
2023-05-07T10:13:43.982Z,5.65
2023-05-07T10:16:50.517Z,5.82
2023-05-07T10:19:56.564Z,4.78
2023-05-07T10:23:05.916Z,4.72
2023-05-07T10:26:21.945Z,5.18
2023-05-07T10:29:45.923Z,4.38
2023-05-07T10:32:55.414Z,5.70
2023-05-07T10:36:09.094Z,5.47
2023-05-07T10:39:15.670Z,5.03
2023-05-07T10:42:22.031Z,4.07
2023-05-07T10:45:32.605Z,4.80
2023-05-07T10:49:02.044Z,4.57
2023-05-07T10:52:17.424Z,4.72
2023-05-07T10:55:32.899Z,5.03
2023-05-07T10:58:46.687Z,5.18
2023-05-07T11:02:11.160Z,5.45
2023-05-07T11:05:23.861Z,5.90
2023-05-07T11:08:59.752Z,6.13
2023-05-07T11:12:37.895Z,6.30
2023-05-07T11:15:49.262Z,5.40
2023-05-07T11:19:01.975Z,5.72
2023-05-07T11:22:37.069Z,5.80
2023-05-07T11:26:08.092Z,5.45
2023-05-07T11:29:22.944Z,5.57
2023-05-07T11:32:34.947Z,4.97
2023-05-07T11:35:41.518Z,5.45
2023-05-07T11:38:49.966Z,5.70
2023-05-07T11:41:55.994Z,4.38
2023-05-07T11:45:02.821Z,5.35
2023-05-07T11:48:08.159Z,5.25
2023-05-07T11:51:14.530Z,6.63
2023-05-07T11:54:19.549Z,5.70
2023-05-07T11:57:25.987Z,5.47
2023-05-07T12:00:31.417Z,5.93
2023-05-07T12:03:41.085Z,6.05
2023-05-07T12:06:46.250Z,4.93
2023-05-07T12:09:51.615Z,6.18
2023-05-07T12:12:57.218Z,5.72
2023-05-07T12:16:06.534Z,5.28
2023-05-07T12:19:15.914Z,5.38
2023-05-07T12:22:22.211Z,4.68
2023-05-07T12:25:27.755Z,4.47
2023-05-07T12:28:39.305Z,5.43
2023-05-07T12:31:45.372Z,5.13
2023-05-07T12:34:53.648Z,5.82
2023-05-07T12:38:05.684Z,5.35
2023-05-07T12:41:13.865Z,5.60
2023-05-07T12:44:19.468Z,6.28
2023-05-07T12:47:24.800Z,6.07
2023-05-07T12:50:35.107Z,5.32
2023-05-07T12:53:44.538Z,6.20
2023-05-07T12:56:49.897Z,5.72
2023-05-07T12:59:59.556Z,6.57
2023-05-07T13:03:05.064Z,6.28
2023-05-07T13:06:11.710Z,5.57
2023-05-07T13:09:17.162Z,5.20
2023-05-07T13:12:22.752Z,5.45
2023-05-07T13:15:28.663Z,6.57
2023-05-07T13:18:35.291Z,6.22
2023-05-07T13:21:41.087Z,6.88
2023-05-07T13:24:46.867Z,6.53
2023-05-07T13:28:02.753Z,6.00
2023-05-07T13:31:15.893Z,6.13
2023-05-07T13:34:21.553Z,6.05
2023-05-07T13:37:27.516Z,6.50
2023-05-07T13:40:33.228Z,5.57
2023-05-07T13:43:38.979Z,6.78
2023-05-07T13:46:45.626Z,6.57
2023-05-07T13:49:51.683Z,6.80
2023-05-07T13:52:57.807Z,8.55
2023-05-07T13:56:05.888Z,9.07
2023-05-07T13:59:11.885Z,7.82
2023-05-07T14:02:17.881Z,7.28
2023-05-07T14:05:29.288Z,8.10
2023-05-07T14:08:34.748Z,6.20
2023-05-07T14:11:41.166Z,6.65
2023-05-07T14:14:47.966Z,6.63
2023-05-07T14:17:54.143Z,6.55
2023-05-07T14:20:59.825Z,6.07
2023-05-07T14:24:08.689Z,5.90
2023-05-07T14:27:14.342Z,6.47
2023-05-07T14:30:19.768Z,5.82
2023-05-07T14:33:25.143Z,5.28
2023-05-07T14:36:31.685Z,4.65
2023-05-07T14:39:37.569Z,5.10
2023-05-07T14:42:43.217Z,5.65
2023-05-07T14:45:48.495Z,6.20
2023-05-07T14:48:54.354Z,5.55
2023-05-07T14:52:02.772Z,5.32
2023-05-07T14:55:08.950Z,5.57
2023-05-07T14:58:15.265Z,4.82
2023-05-07T15:01:22.116Z,4.53
2023-05-07T15:04:27.677Z,5.30
2023-05-07T15:07:34.290Z,5.50
2023-05-07T15:10:42.438Z,4.68
2023-05-07T15:13:48.004Z,5.55
2023-05-07T15:16:53.185Z,5.15
2023-05-07T15:19:58.882Z,5.50
2023-05-07T15:23:10.945Z,4.55
2023-05-07T15:26:17.859Z,4.68
2023-05-07T15:29:23.303Z,3.92
2023-05-07T15:32:28.642Z,3.97
2023-05-07T15:35:34.373Z,3.60
2023-05-07T15:38:40.114Z,4.47
2023-05-07T15:41:45.704Z,4.22
2023-05-07T15:44:51.102Z,4.15
2023-05-07T15:47:56.654Z,4.95
2023-05-07T15:51:03.522Z,5.40
2023-05-07T15:54:08.917Z,4.90
2023-05-07T15:57:14.424Z,5.05
2023-05-07T16:00:20.201Z,4.63
2023-05-07T16:03:27.956Z,4.57
2023-05-07T16:06:33.955Z,5.35
2023-05-07T16:09:39.773Z,5.07
2023-05-07T16:12:45.687Z,3.92
2023-05-07T16:15:58.059Z,4.82
2023-05-07T16:19:04.125Z,4.95
2023-05-07T16:22:10.621Z,4.22
2023-05-07T16:25:16.857Z,5.03
2023-05-07T16:28:24.123Z,4.93
2023-05-07T16:31:31.926Z,4.97
2023-05-07T16:34:37.897Z,4.18
2023-05-07T16:37:43.452Z,4.40
2023-05-07T16:40:49.107Z,4.50
2023-05-07T16:43:54.325Z,4.10
2023-05-07T16:46:59.771Z,4.20
2023-05-07T16:50:08.674Z,3.80
2023-05-07T16:53:14.452Z,4.13
2023-05-07T16:56:20.314Z,4.45
2023-05-07T16:59:25.857Z,4.53
2023-05-07T17:02:31.649Z,4.07
2023-05-07T17:05:37.079Z,3.45
2023-05-07T17:08:43.231Z,3.95
2023-05-07T17:11:48.949Z,4.53
2023-05-07T17:14:54.218Z,4.43
2023-05-07T17:17:59.679Z,3.72
2023-05-07T17:21:04.997Z,3.97
2023-05-07T17:24:10.718Z,4.07
2023-05-07T17:27:16.632Z,3.97
2023-05-07T17:30:22.169Z,3.95
2023-05-07T17:33:27.767Z,3.65
2023-05-07T17:36:33.544Z,3.63
2023-05-07T17:39:38.952Z,4.07
2023-05-07T17:42:44.255Z,4.65
2023-05-07T17:45:50.561Z,3.70
2023-05-07T17:48:57.142Z,4.30
2023-05-07T17:52:02.429Z,3.70
2023-05-07T17:55:08.935Z,4.20
2023-05-07T17:58:14.701Z,4.00
2023-05-07T18:01:22.233Z,4.00
2023-05-07T18:04:28.438Z,3.97
2023-05-07T18:07:34.060Z,4.20
2023-05-07T18:10:39.662Z,4.00
2023-05-07T18:13:45.258Z,4.65
2023-05-07T18:16:51.130Z,4.40
2023-05-07T18:19:56.875Z,5.57
2023-05-07T18:23:02.524Z,4.95
2023-05-07T18:26:08.585Z,5.30
2023-05-07T18:29:14.309Z,5.72
2023-05-07T18:32:22.000Z,5.18
2023-05-07T18:35:27.720Z,4.15
2023-05-07T18:38:34.205Z,4.80
2023-05-07T18:41:39.875Z,4.40
2023-05-07T18:44:45.290Z,5.00
2023-05-07T18:47:50.360Z,5.95
2023-05-07T18:50:55.309Z,5.28
2023-05-07T18:54:02.292Z,4.18
2023-05-07T18:57:07.698Z,4.95
2023-05-07T19:00:14.400Z,4.22
2023-05-07T19:03:20.011Z,3.80
2023-05-07T19:06:26.536Z,3.80
2023-05-07T19:09:32.314Z,4.38
2023-05-07T19:12:37.644Z,3.78
2023-05-07T19:15:44.120Z,4.03
2023-05-07T19:18:49.741Z,4.40
2023-05-07T19:21:55.411Z,4.53
2023-05-07T19:25:01.119Z,5.38
2023-05-07T19:28:06.929Z,4.95
2023-05-07T19:31:23.168Z,5.15
2023-05-07T19:34:30.505Z,4.10
2023-05-07T19:37:36.930Z,3.75
2023-05-07T19:40:42.268Z,4.15
2023-05-07T19:43:48.143Z,4.22
2023-05-07T19:46:53.474Z,4.30
2023-05-07T19:49:59.228Z,4.43
2023-05-07T19:53:05.399Z,5.25
2023-05-07T19:56:12.055Z,4.50
2023-05-07T19:59:17.565Z,4.50
2023-05-07T20:02:23.188Z,4.03
2023-05-07T20:05:30.307Z,4.30
2023-05-07T20:08:37.013Z,4.90
2023-05-07T20:11:44.059Z,4.45
2023-05-07T20:14:51.578Z,4.50
2023-05-07T20:17:56.906Z,5.45
2023-05-07T20:21:01.966Z,5.60
2023-05-07T20:24:08.011Z,6.10
2023-05-07T20:27:13.617Z,6.18
2023-05-07T20:30:24.399Z,7.05
2023-05-07T20:36:36.262Z,6.65
2023-05-07T20:39:42.762Z,7.50
2023-05-07T20:42:48.523Z,7.45
2023-05-07T20:46:02.996Z,7.07
2023-05-07T20:49:08.918Z,6.35
2023-05-07T20:52:13.958Z,8.00
2023-05-07T20:55:19.534Z,9.57
2023-05-07T20:58:26.606Z,10.80
2023-05-07T21:01:32.390Z,12.05
2023-05-07T21:04:38.063Z,14.02
2023-05-07T21:07:43.248Z,13.63
2023-05-07T21:10:49.277Z,14.95
2023-05-07T21:13:54.496Z,14.02
2023-05-07T21:17:00.617Z,14.48
2023-05-07T21:20:07.100Z,15.38
2023-05-07T21:23:12.947Z,15.77
2023-05-07T21:26:19.429Z,15.85
2023-05-07T21:29:25.369Z,16.55
2023-05-07T21:32:31.718Z,15.98
2023-05-07T21:35:37.836Z,15.60
2023-05-07T21:38:43.608Z,15.27
2023-05-07T21:41:49.257Z,15.23
2023-05-07T21:44:54.952Z,15.77
2023-05-07T21:48:00.470Z,14.73
2023-05-07T21:51:07.805Z,14.07
2023-05-07T21:54:13.324Z,13.63
2023-05-07T21:57:18.926Z,12.85
2023-05-07T22:00:24.915Z,8.80
2023-05-07T22:03:30.676Z,3.67
2023-05-07T22:06:36.518Z,2.45
2023-05-07T22:09:42.105Z,1.58
2023-05-07T22:12:48.060Z,1.92
2023-05-07T22:15:58.116Z,1.60
2023-05-07T22:19:04.152Z,1.35
2023-05-07T22:22:09.823Z,1.27
2023-05-07T22:25:15.341Z,1.10
2023-05-07T22:28:21.690Z,1.52
2023-05-07T22:31:27.217Z,2.13
2023-05-07T22:34:33.089Z,1.10
2023-05-07T22:37:38.895Z,1.58
2023-05-07T22:40:44.318Z,1.90
2023-05-07T22:43:49.810Z,2.50
2023-05-07T22:46:55.458Z,3.00
2023-05-07T22:50:01.263Z,2.65
2023-05-07T22:53:07.125Z,2.42
2023-05-07T22:56:12.742Z,3.67
2023-05-07T22:59:18.109Z,2.47
2023-05-07T23:02:24.417Z,2.45
2023-05-07T23:05:30.533Z,2.35
2023-05-07T23:08:35.879Z,2.25
2023-05-07T23:11:41.727Z,1.80
2023-05-07T23:14:47.252Z,2.53
2023-05-07T23:17:52.813Z,2.50
2023-05-07T23:20:58.999Z,2.53
2023-05-07T23:24:04.864Z,2.03
2023-05-07T23:27:10.026Z,2.10
2023-05-07T23:30:15.841Z,2.50
2023-05-07T23:33:21.236Z,1.85
2023-05-07T23:36:27.049Z,2.30
2023-05-07T23:39:32.849Z,3.83
2023-05-07T23:42:38.707Z,2.60
2023-05-07T23:45:44.783Z,4.13
2023-05-07T23:48:50.286Z,3.10
2023-05-07T23:51:56.096Z,1.90
2023-05-07T23:55:01.610Z,2.10
2023-05-07T23:58:07.322Z,2.25
